createdAt,value
2022-08-01T00:00:09.076Z,56.40
2022-08-01T00:02:40.134Z,56.30
2022-08-01T00:05:08.799Z,56.30
2022-08-01T00:07:36.040Z,56.20
2022-08-01T00:10:04.751Z,56.20
2022-08-01T00:12:31.487Z,56.20
2022-08-01T00:14:58.221Z,56.20
2022-08-01T00:17:24.967Z,56.10
2022-08-01T00:19:51.686Z,56.20
2022-08-01T00:22:18.414Z,56.20
2022-08-01T00:24:45.145Z,56.30
2022-08-01T00:27:11.855Z,56.20
2022-08-01T00:30:11.967Z,56.10
2022-08-01T00:32:25.507Z,56.50
2022-08-01T00:34:52.536Z,56.40
2022-08-01T00:37:19.281Z,57.00
2022-08-01T00:39:46.017Z,56.40
2022-08-01T00:42:14.303Z,56.50
2022-08-01T00:44:41.441Z,56.40
2022-08-01T00:47:08.649Z,56.50
2022-08-01T00:49:36.098Z,56.30
2022-08-01T00:52:06.222Z,56.30
2022-08-01T00:54:33.834Z,56.50
2022-08-01T00:57:00.969Z,56.40
2022-08-01T00:59:28.323Z,56.50
2022-08-01T01:01:55.338Z,56.30
2022-08-01T01:04:22.970Z,56.90
2022-08-01T01:06:49.635Z,56.40
2022-08-01T01:09:43.701Z,56.40
2022-08-01T01:12:14.659Z,56.50
2022-08-01T01:14:47.194Z,56.50
2022-08-01T01:17:18.410Z,56.40
2022-08-01T01:20:07.751Z,56.40
2022-08-01T01:22:59.951Z,56.30
2022-08-01T01:25:38.655Z,56.60
2022-08-01T01:28:24.251Z,56.50
2022-08-01T01:30:54.414Z,56.50
2022-08-01T01:33:24.579Z,56.50
2022-08-01T01:36:00.072Z,56.50
2022-08-01T01:38:30.159Z,56.50
2022-08-01T01:40:58.775Z,56.50
2022-08-01T01:43:28.865Z,56.50
2022-08-01T01:46:01.554Z,56.50
2022-08-01T01:48:29.675Z,56.50
2022-08-01T01:50:57.740Z,56.50
2022-08-01T01:53:25.858Z,56.50
2022-08-01T01:55:55.561Z,56.60
2022-08-01T01:58:23.351Z,56.50
2022-08-01T02:00:52.442Z,56.50
2022-08-01T02:03:20.710Z,56.60
2022-08-01T02:05:48.511Z,56.60
2022-08-01T02:08:17.369Z,56.50
2022-08-01T02:11:06.378Z,56.50
2022-08-01T02:13:35.360Z,56.50
2022-08-01T02:16:04.062Z,56.50
2022-08-01T02:18:31.181Z,56.40
2022-08-01T02:20:59.765Z,56.50
2022-08-01T02:23:34.768Z,56.50
2022-08-01T02:26:10.924Z,56.50
2022-08-01T02:29:15.976Z,56.50
2022-08-01T02:31:47.923Z,56.60
2022-08-01T02:34:18.914Z,56.40
2022-08-01T02:36:47.694Z,56.40
2022-08-01T02:39:17.262Z,56.50
2022-08-01T02:41:49.043Z,56.50
2022-08-01T02:44:26.167Z,56.50
2022-08-01T02:46:57.316Z,56.50
2022-08-01T02:49:27.112Z,56.60
2022-08-01T02:51:55.557Z,56.40
2022-08-01T02:54:23.558Z,56.50
2022-08-01T02:56:52.388Z,56.50
2022-08-01T02:59:25.637Z,56.50
2022-08-01T03:01:56.226Z,56.60
2022-08-01T03:04:25.284Z,56.60
2022-08-01T03:06:54.994Z,56.60
2022-08-01T03:09:22.526Z,56.60
2022-08-01T03:11:50.687Z,56.60
2022-08-01T03:14:20.763Z,56.60
2022-08-01T03:16:52.391Z,56.60
2022-08-01T03:19:23.874Z,56.60
2022-08-01T03:21:52.199Z,56.60
2022-08-01T03:24:20.608Z,56.60
2022-08-01T03:26:48.506Z,56.60
2022-08-01T03:29:22.707Z,56.60
2022-08-01T03:31:50.343Z,56.60
2022-08-01T03:34:18.249Z,56.70
2022-08-01T03:36:53.961Z,56.60
2022-08-01T03:39:26.364Z,56.60
2022-08-01T03:41:57.098Z,56.50
2022-08-01T03:44:27.371Z,56.60
2022-08-01T03:47:05.081Z,56.60
2022-08-01T03:49:36.133Z,56.60
2022-08-01T03:52:08.027Z,56.60
2022-08-01T03:54:38.385Z,57.10
2022-08-01T03:57:06.444Z,56.60
2022-08-01T03:59:34.272Z,56.60
2022-08-01T04:02:01.374Z,56.50
2022-08-01T04:04:29.940Z,56.60
2022-08-01T04:06:56.688Z,56.60
2022-08-01T04:09:23.717Z,56.60
2022-08-01T04:11:50.484Z,56.60
2022-08-01T04:14:17.274Z,56.60
2022-08-01T04:16:44.118Z,56.60
2022-08-01T04:19:10.983Z,56.60
2022-08-01T04:21:38.266Z,56.60
2022-08-01T04:24:14.510Z,56.60
2022-08-01T04:26:44.051Z,56.70
2022-08-01T04:29:12.675Z,56.70
2022-08-01T04:31:42.576Z,56.70
2022-08-01T04:34:11.012Z,56.60
2022-08-01T04:36:39.361Z,56.60
2022-08-01T04:39:06.956Z,56.60
2022-08-01T04:41:34.838Z,56.60
2022-08-01T04:44:01.706Z,56.60
2022-08-01T04:46:29.676Z,56.60
2022-08-01T04:48:57.700Z,56.70
2022-08-01T04:51:25.336Z,57.20
2022-08-01T04:53:52.164Z,56.60
2022-08-01T04:56:22.131Z,56.60
2022-08-01T04:58:49.427Z,56.60
2022-08-01T05:01:16.596Z,56.60
2022-08-01T05:03:43.504Z,56.70
2022-08-01T05:06:10.264Z,56.60
2022-08-01T05:08:37.172Z,56.60
2022-08-01T05:11:04.528Z,56.70
2022-08-01T05:13:31.479Z,56.70
2022-08-01T05:15:58.292Z,56.60
2022-08-01T05:18:28.560Z,56.70
2022-08-01T05:20:55.911Z,56.70
2022-08-01T05:23:37.727Z,56.70
2022-08-01T05:26:09.918Z,56.70
2022-08-01T05:28:36.947Z,56.70
2022-08-01T05:31:04.636Z,56.80
2022-08-01T05:33:31.456Z,56.80
2022-08-01T05:35:58.215Z,56.80
2022-08-01T05:38:24.960Z,57.00
2022-08-01T05:40:51.767Z,57.70
2022-08-01T05:43:18.517Z,58.70
2022-08-01T05:45:46.913Z,59.30
2022-08-01T05:48:13.707Z,60.50
2022-08-01T05:50:40.491Z,60.10
2022-08-01T05:53:07.323Z,60.50
2022-08-01T05:55:34.069Z,60.00
2022-08-01T05:58:00.780Z,59.70
2022-08-01T06:00:27.531Z,59.50
2022-08-01T06:02:54.257Z,59.30
2022-08-01T06:05:21.037Z,59.10
2022-08-01T06:07:47.848Z,59.10
2022-08-01T06:10:14.608Z,59.20
2022-08-01T06:12:41.536Z,59.20
2022-08-01T06:15:09.031Z,59.50
2022-08-01T06:17:36.077Z,59.40
2022-08-01T06:20:03.985Z,59.30
2022-08-01T06:22:30.933Z,59.40
2022-08-01T06:24:58.337Z,59.40
2022-08-01T06:27:28.260Z,59.60
2022-08-01T06:29:55.042Z,59.70
2022-08-01T06:32:26.878Z,59.80
2022-08-01T06:34:54.541Z,59.80
2022-08-01T06:37:22.353Z,59.90
2022-08-01T06:39:50.419Z,59.90
2022-08-01T06:42:17.727Z,59.60
2022-08-01T06:44:44.507Z,59.70
2022-08-01T06:47:11.227Z,59.60
2022-08-01T06:49:38.092Z,59.60
2022-08-01T06:52:05.532Z,59.50
2022-08-01T06:54:32.522Z,59.40
2022-08-01T06:56:59.252Z,59.20
2022-08-01T06:59:25.967Z,59.40
2022-08-01T07:01:52.693Z,59.10
2022-08-01T07:04:19.414Z,59.00
2022-08-01T07:06:46.162Z,58.90
2022-08-01T07:09:15.179Z,58.80
2022-08-01T07:11:42.267Z,58.80
2022-08-01T07:14:09.376Z,58.50
2022-08-01T07:16:36.484Z,58.50
2022-08-01T07:19:03.325Z,58.50
2022-08-01T07:21:39.736Z,58.40
2022-08-01T07:24:13.073Z,58.50
2022-08-01T07:26:52.710Z,58.50
2022-08-01T07:29:21.915Z,58.40
2022-08-01T07:31:48.669Z,58.50
2022-08-01T07:34:15.377Z,58.30
2022-08-01T07:36:42.166Z,58.50
2022-08-01T07:39:08.935Z,58.40
2022-08-01T07:41:53.069Z,58.60
2022-08-01T07:44:22.359Z,58.60
2022-08-01T07:46:49.099Z,58.70
2022-08-01T07:49:15.931Z,58.30
2022-08-01T07:51:42.779Z,58.60
2022-08-01T07:54:33.578Z,58.50
2022-08-01T07:57:01.325Z,58.40
2022-08-01T07:59:28.634Z,58.50
2022-08-01T08:01:55.430Z,58.50
2022-08-01T08:04:22.266Z,58.80
2022-08-01T08:06:51.782Z,58.80
2022-08-01T08:09:18.551Z,58.60
2022-08-01T08:11:47.982Z,58.30
2022-08-01T08:14:16.888Z,58.40
2022-08-01T08:16:44.786Z,58.60
2022-08-01T08:19:12.393Z,58.40
2022-08-01T08:21:39.676Z,58.40
2022-08-01T08:24:26.210Z,58.30
2022-08-01T08:26:57.288Z,58.40
2022-08-01T08:29:24.541Z,58.30
2022-08-01T08:31:53.167Z,58.30
2022-08-01T08:34:20.673Z,58.20
2022-08-01T08:36:48.711Z,58.20
2022-08-01T08:39:17.545Z,58.30
2022-08-01T08:41:49.059Z,58.30
2022-08-01T08:44:17.109Z,58.40
2022-08-01T08:46:49.771Z,58.40
2022-08-01T08:49:19.833Z,58.20
2022-08-01T08:51:50.345Z,58.20
2022-08-01T08:54:19.347Z,58.10
2022-08-01T08:56:48.152Z,58.20
2022-08-01T08:59:15.446Z,58.40
2022-08-01T09:01:43.470Z,58.30
2022-08-01T09:04:10.945Z,58.20
2022-08-01T09:06:38.539Z,58.30
2022-08-01T09:09:06.970Z,58.20
2022-08-01T09:11:34.850Z,58.30
2022-08-01T09:14:11.988Z,58.40
2022-08-01T09:16:48.332Z,58.20
2022-08-01T09:19:40.351Z,58.10
2022-08-01T09:22:10.163Z,58.10
2022-08-01T09:24:38.299Z,58.10
2022-08-01T09:27:22.325Z,58.00
2022-08-01T09:30:01.556Z,57.80
2022-08-01T09:32:38.752Z,57.80
2022-08-01T09:35:29.788Z,57.70
2022-08-01T09:38:14.278Z,57.40
2022-08-01T09:41:01.576Z,57.60
2022-08-01T09:43:31.422Z,57.80
2022-08-01T09:45:59.592Z,57.80
2022-08-01T09:48:28.306Z,57.90
2022-08-01T09:51:04.722Z,58.00
2022-08-01T09:53:52.063Z,58.00
2022-08-01T09:56:22.194Z,57.90
2022-08-01T09:59:01.015Z,57.90
2022-08-01T10:01:43.577Z,58.00
2022-08-01T10:04:15.672Z,58.30
2022-08-01T10:06:46.085Z,58.00
2022-08-01T10:09:14.695Z,57.80
2022-08-01T10:11:44.766Z,57.80
2022-08-01T10:14:18.369Z,57.00
2022-08-01T10:16:46.597Z,57.60
2022-08-01T10:19:24.284Z,57.40
2022-08-01T10:21:56.662Z,56.90
2022-08-01T10:24:27.970Z,56.80
2022-08-01T10:27:08.383Z,57.20
2022-08-01T10:30:06.842Z,57.20
2022-08-01T10:32:36.639Z,57.30
2022-08-01T10:35:07.577Z,57.30
2022-08-01T10:37:51.930Z,56.30
2022-08-01T10:40:30.479Z,56.50
2022-08-01T10:42:58.367Z,57.00
2022-08-01T10:45:26.642Z,56.80
2022-08-01T10:48:06.962Z,56.50
2022-08-01T10:50:39.528Z,57.00
2022-08-01T10:53:24.004Z,56.70
2022-08-01T10:55:59.343Z,57.10
2022-08-01T10:58:36.699Z,56.90
2022-08-01T11:01:15.878Z,56.30
2022-08-01T11:04:01.599Z,56.80
2022-08-01T11:06:34.607Z,56.60
2022-08-01T11:09:16.843Z,56.90
2022-08-01T11:12:24.815Z,56.70
2022-08-01T11:15:03.001Z,56.80
2022-08-01T11:17:54.572Z,56.70
2022-08-01T11:20:23.771Z,56.40
2022-08-01T11:23:05.114Z,56.60
2022-08-01T11:26:03.986Z,56.10
2022-08-01T11:28:32.556Z,56.50
2022-08-01T11:31:11.249Z,56.30
2022-08-01T11:33:45.505Z,55.40
2022-08-01T11:36:16.829Z,56.40
2022-08-01T11:38:46.919Z,55.60
2022-08-01T11:41:17.571Z,56.50
2022-08-01T11:43:56.986Z,56.40
2022-08-01T11:46:57.915Z,55.50
2022-08-01T11:49:29.476Z,56.20
2022-08-01T11:52:10.068Z,56.20
2022-08-01T11:54:43.288Z,55.90
2022-08-01T11:57:18.543Z,55.80
2022-08-01T12:00:02.772Z,56.20
2022-08-01T12:02:37.391Z,56.20
2022-08-01T12:05:15.979Z,55.30
2022-08-01T12:07:44.183Z,55.80
2022-08-01T12:10:19.023Z,55.70
2022-08-01T12:13:00.607Z,55.70
2022-08-01T12:15:33.827Z,55.70
2022-08-01T12:18:03.756Z,55.80
2022-08-01T12:20:33.835Z,56.00
2022-08-01T12:23:06.808Z,56.00
2022-08-01T12:25:34.781Z,55.80
2022-08-01T12:28:06.432Z,54.30
2022-08-01T12:30:36.320Z,55.30
2022-08-01T12:33:19.599Z,55.20
2022-08-01T12:35:46.423Z,55.10
2022-08-01T12:38:19.738Z,54.30
2022-08-01T12:40:51.545Z,54.60
2022-08-01T12:43:28.471Z,55.30
2022-08-01T12:45:58.798Z,55.00
2022-08-01T12:48:27.270Z,54.70
2022-08-01T12:50:58.357Z,54.90
2022-08-01T12:53:25.607Z,54.50
2022-08-01T12:55:59.159Z,54.80
2022-08-01T12:58:35.034Z,55.10
2022-08-01T13:01:11.147Z,54.80
2022-08-01T13:03:38.606Z,54.30
2022-08-01T13:06:17.193Z,52.40
2022-08-01T13:08:46.075Z,54.70
2022-08-01T13:11:15.769Z,53.10
2022-08-01T13:13:45.666Z,53.10
2022-08-01T13:16:25.855Z,52.60
2022-08-01T13:18:59.592Z,53.00
2022-08-01T13:21:29.113Z,54.00
2022-08-01T13:24:14.214Z,54.20
2022-08-01T13:26:45.474Z,53.30
2022-08-01T13:29:14.692Z,54.00
2022-08-01T13:31:42.520Z,54.60
2022-08-01T13:34:09.655Z,54.10
2022-08-01T13:36:37.173Z,51.00
2022-08-01T13:39:23.556Z,52.40
2022-08-01T13:41:50.842Z,52.10
2022-08-01T13:44:17.631Z,52.10
2022-08-01T13:46:47.873Z,50.30
2022-08-01T13:49:17.454Z,50.00
2022-08-01T13:51:46.799Z,51.70
2022-08-01T13:54:13.656Z,51.00
2022-08-01T13:56:40.474Z,53.20
2022-08-01T13:59:07.566Z,53.60
2022-08-01T14:01:34.956Z,52.20
2022-08-01T14:04:03.090Z,51.70
2022-08-01T14:06:30.585Z,53.40
2022-08-01T14:08:57.456Z,53.60
2022-08-01T14:11:24.539Z,52.90
2022-08-01T14:13:51.402Z,52.40
2022-08-01T14:16:18.490Z,52.90
2022-08-01T14:18:45.428Z,53.30
2022-08-01T14:21:12.566Z,52.60
2022-08-01T14:23:39.949Z,51.70
2022-08-01T14:26:11.872Z,50.70
2022-08-01T14:28:40.113Z,50.30
2022-08-01T14:31:09.839Z,49.70
2022-08-01T14:33:37.442Z,49.80
2022-08-01T14:36:31.070Z,49.80
2022-08-01T14:38:51.915Z,50.30
2022-08-01T14:41:18.663Z,51.70
2022-08-01T14:43:45.668Z,52.70
2022-08-01T14:46:13.481Z,53.30
2022-08-01T14:48:40.458Z,53.80
2022-08-01T14:51:08.176Z,54.20
2022-08-01T14:53:38.557Z,54.60
2022-08-01T14:56:06.268Z,54.70
2022-08-01T14:58:33.695Z,54.90
2022-08-01T15:01:00.566Z,55.10
2022-08-01T15:03:27.431Z,55.20
2022-08-01T15:05:54.427Z,55.30
2022-08-01T15:08:21.239Z,55.50
2022-08-01T15:10:47.984Z,55.50
2022-08-01T15:13:14.745Z,55.60
2022-08-01T15:15:41.579Z,55.70
2022-08-01T15:18:08.325Z,55.80
2022-08-01T15:20:35.115Z,55.80
2022-08-01T15:23:01.908Z,55.90
2022-08-01T15:25:41.171Z,56.00
2022-08-01T15:28:10.471Z,56.10
2022-08-01T15:30:37.848Z,56.10
2022-08-01T15:33:04.731Z,56.20
2022-08-01T15:35:31.491Z,56.20
2022-08-01T15:37:58.286Z,56.30
2022-08-01T15:40:25.260Z,56.40
2022-08-01T15:42:53.171Z,56.40
2022-08-01T15:45:45.892Z,56.50
2022-08-01T15:48:08.673Z,56.50
2022-08-01T15:50:35.478Z,56.60
2022-08-01T15:53:02.209Z,56.50
2022-08-01T15:55:28.959Z,56.60
2022-08-01T15:57:55.878Z,56.70
2022-08-01T16:00:22.784Z,56.70
2022-08-01T16:02:49.763Z,56.80
2022-08-01T16:05:17.195Z,56.80
2022-08-01T16:07:59.198Z,56.90
2022-08-01T16:10:28.744Z,56.90
2022-08-01T16:12:55.522Z,56.90
2022-08-01T16:15:22.756Z,56.90
2022-08-01T16:18:03.976Z,56.90
2022-08-01T16:20:30.703Z,56.90
2022-08-01T16:22:57.455Z,56.90
2022-08-01T16:25:24.191Z,57.00
2022-08-01T16:27:50.943Z,57.00
2022-08-01T16:30:17.727Z,57.00
2022-08-01T16:32:47.821Z,57.10
2022-08-01T16:35:17.931Z,57.20
2022-08-01T16:37:44.954Z,57.20
2022-08-01T16:40:11.978Z,57.10
2022-08-01T16:42:38.702Z,57.10
2022-08-01T16:45:08.782Z,57.10
2022-08-01T16:47:41.043Z,57.10
2022-08-01T16:50:09.542Z,57.10
2022-08-01T16:52:41.990Z,57.20
2022-08-01T16:55:10.811Z,57.20
2022-08-01T16:57:38.487Z,57.20
2022-08-01T17:00:20.916Z,57.20
2022-08-01T17:02:48.495Z,57.30
2022-08-01T17:05:15.474Z,57.30
2022-08-01T17:07:42.282Z,57.90
2022-08-01T17:10:09.962Z,57.90
2022-08-01T17:12:36.694Z,57.30
2022-08-01T17:15:04.016Z,57.20
2022-08-01T17:17:30.737Z,57.30
2022-08-01T17:19:57.667Z,57.50
2022-08-01T17:22:24.464Z,57.70
2022-08-01T17:24:52.088Z,57.60
2022-08-01T17:27:19.468Z,57.60
2022-08-01T17:29:46.594Z,57.80
2022-08-01T17:32:14.145Z,57.90
2022-08-01T17:34:42.242Z,58.40
2022-08-01T17:37:10.033Z,57.80
2022-08-01T17:39:39.217Z,57.90
2022-08-01T17:42:07.688Z,58.00
2022-08-01T17:44:34.463Z,58.00
2022-08-01T17:47:01.180Z,58.10
2022-08-01T17:49:52.360Z,57.90
2022-08-01T17:52:14.635Z,58.10
2022-08-01T17:54:41.868Z,58.10
2022-08-01T17:57:10.237Z,58.00
2022-08-01T17:59:37.193Z,58.00
2022-08-01T18:02:04.393Z,58.00
2022-08-01T18:04:34.023Z,58.10
2022-08-01T18:07:01.617Z,58.10
2022-08-01T18:09:32.733Z,58.10
2022-08-01T18:12:03.068Z,58.20
2022-08-01T18:14:40.286Z,58.20
2022-08-01T18:17:11.317Z,58.30
2022-08-01T18:19:41.143Z,58.40
2022-08-01T18:22:25.676Z,58.50
2022-08-01T18:25:00.189Z,58.60
2022-08-01T18:28:22.752Z,59.10
2022-08-01T18:30:19.075Z,58.70
2022-08-01T18:32:45.783Z,58.70
2022-08-01T18:35:14.260Z,58.80
2022-08-01T18:37:49.905Z,58.80
2022-08-01T18:40:23.088Z,58.80
2022-08-01T18:42:50.105Z,58.80
2022-08-01T18:45:17.821Z,58.90
2022-08-01T18:47:45.479Z,59.00
2022-08-01T18:50:12.224Z,59.00
2022-08-01T18:52:38.938Z,58.90
2022-08-01T18:55:06.354Z,59.00
2022-08-01T18:57:33.091Z,59.00
2022-08-01T18:59:59.808Z,59.00
2022-08-01T19:02:26.611Z,59.10
2022-08-01T19:04:54.723Z,59.10
2022-08-01T19:07:39.408Z,59.10
2022-08-01T19:10:08.531Z,59.10
2022-08-01T19:12:35.648Z,59.10
2022-08-01T19:15:04.960Z,59.00
2022-08-01T19:17:32.071Z,58.90
2022-08-01T19:19:58.866Z,58.80
2022-08-01T19:22:25.594Z,58.80
2022-08-01T19:24:52.474Z,58.80
2022-08-01T19:27:24.743Z,58.80
2022-08-01T19:29:55.633Z,58.80
2022-08-01T19:32:25.133Z,58.90
2022-08-01T19:35:04.707Z,58.80
2022-08-01T19:37:32.323Z,58.70
2022-08-01T19:39:59.598Z,58.80
2022-08-01T19:42:27.901Z,58.90
2022-08-01T19:44:54.985Z,58.90
2022-08-01T19:47:21.803Z,58.80
2022-08-01T19:49:48.839Z,58.80
2022-08-01T19:52:19.412Z,58.80
2022-08-01T19:54:47.798Z,58.80
2022-08-01T19:57:15.779Z,58.80
2022-08-01T19:59:45.999Z,58.80
2022-08-01T20:02:20.488Z,58.80
2022-08-01T20:04:47.860Z,58.80
2022-08-01T20:07:15.172Z,58.80
2022-08-01T20:09:45.598Z,58.80
2022-08-01T20:12:12.528Z,58.80
2022-08-01T20:14:43.304Z,58.60
2022-08-01T20:17:10.244Z,58.90
2022-08-01T20:19:37.191Z,58.90
2022-08-01T20:22:07.254Z,58.80
2022-08-01T20:24:39.749Z,59.00
2022-08-01T20:27:09.672Z,58.90
2022-08-01T20:29:36.881Z,59.00
2022-08-01T20:32:06.789Z,59.10
2022-08-01T20:34:37.590Z,59.00
2022-08-01T20:37:09.264Z,59.00
2022-08-01T20:39:43.322Z,58.90
2022-08-01T20:42:11.200Z,58.80
2022-08-01T20:44:38.665Z,58.80
2022-08-01T20:47:05.651Z,58.70
2022-08-01T20:49:33.803Z,58.90
2022-08-01T20:52:11.355Z,58.80
2022-08-01T20:54:40.503Z,58.90
2022-08-01T20:57:18.159Z,58.80
2022-08-01T20:59:55.850Z,58.90
2022-08-01T21:02:29.995Z,58.80
2022-08-01T21:05:10.860Z,58.80
2022-08-01T21:08:11.907Z,58.70
2022-08-01T21:10:40.879Z,58.70
2022-08-01T21:13:16.602Z,58.70
2022-08-01T21:16:22.129Z,58.70
2022-08-01T21:22:26.924Z,58.80
2022-08-01T21:24:59.095Z,58.80
2022-08-01T21:27:33.298Z,58.80
2022-08-01T21:30:06.514Z,58.70
2022-08-01T21:32:34.938Z,58.80
2022-08-01T21:35:03.863Z,59.10
2022-08-01T21:37:33.910Z,58.80
2022-08-01T21:40:02.798Z,58.90
2022-08-01T21:42:39.897Z,58.80
2022-08-01T21:45:09.499Z,58.90
2022-08-01T21:47:36.707Z,58.90
2022-08-01T21:50:04.336Z,58.20
2022-08-01T21:52:41.135Z,59.10
2022-08-01T21:55:34.009Z,58.90
2022-08-01T21:58:11.778Z,58.90
2022-08-01T22:00:43.463Z,59.00
2022-08-01T22:03:48.405Z,58.90
2022-08-01T22:06:16.773Z,58.80
2022-08-01T22:08:54.491Z,59.10
2022-08-01T22:11:27.700Z,59.00
2022-08-01T22:13:58.298Z,59.00
2022-08-01T22:16:27.123Z,59.00
2022-08-01T22:18:54.499Z,58.90
2022-08-01T22:21:21.584Z,59.00
2022-08-01T22:23:52.171Z,58.90
2022-08-01T22:26:23.653Z,58.80
2022-08-01T22:28:54.441Z,58.90
2022-08-01T22:31:22.763Z,58.90
2022-08-01T22:33:49.995Z,58.90
2022-08-01T22:36:18.148Z,58.90
2022-08-01T22:38:44.895Z,58.90
2022-08-01T22:41:17.373Z,59.00
2022-08-01T22:44:10.116Z,59.00
2022-08-01T22:47:05.276Z,59.00
2022-08-01T22:49:42.508Z,59.00
2022-08-01T22:52:19.824Z,59.00
2022-08-01T22:54:50.979Z,58.90
2022-08-01T22:57:27.059Z,59.00
2022-08-01T23:00:04.493Z,58.90
2022-08-01T23:02:33.317Z,59.00
2022-08-01T23:05:06.265Z,59.00
2022-08-01T23:07:38.286Z,59.70
2022-08-01T23:10:06.872Z,59.00
2022-08-01T23:12:34.096Z,59.10
2022-08-01T23:15:01.425Z,59.10
2022-08-01T23:17:32.075Z,59.10
2022-08-01T23:20:05.825Z,59.00
2022-08-01T23:22:34.615Z,59.00
2022-08-01T23:25:06.502Z,59.10
2022-08-01T23:27:54.229Z,58.90
2022-08-01T23:30:30.681Z,58.90
2022-08-01T23:32:57.719Z,58.90
2022-08-01T23:35:25.276Z,58.90
2022-08-01T23:37:52.801Z,58.90
2022-08-01T23:40:19.842Z,58.90
2022-08-01T23:42:46.677Z,58.90
2022-08-01T23:45:13.559Z,58.90
2022-08-01T23:47:40.531Z,58.80
2022-08-01T23:50:07.998Z,58.90
2022-08-01T23:52:35.848Z,58.90
2022-08-01T23:55:15.120Z,58.90
2022-08-01T23:57:42.512Z,58.90
